sensor_id;sensor_type;location;lat;lon;timestamp;temperature;humidity
31979;DHT22;18502;43.574;1.276;2024-02-23T00:01:32;5.90;99.90
31979;DHT22;18502;43.574;1.276;2024-02-23T00:03:57;5.70;99.90
31979;DHT22;18502;43.574;1.276;2024-02-23T00:06:23;5.50;99.90
31979;DHT22;18502;43.574;1.276;2024-02-23T00:08:56;5.40;99.90
31979;DHT22;18502;43.574;1.276;2024-02-23T00:11:21;5.30;99.90
31979;DHT22;18502;43.574;1.276;2024-02-23T00:13:47;5.50;99.90
31979;DHT22;18502;43.574;1.276;2024-02-23T00:16:12;5.50;99.90
31979;DHT22;18502;43.574;1.276;2024-02-23T00:18:39;5.70;99.90
31979;DHT22;18502;43.574;1.276;2024-02-23T00:21:04;5.60;99.90
31979;DHT22;18502;43.574;1.276;2024-02-23T00:23:30;5.60;99.90
31979;DHT22;18502;43.574;1.276;2024-02-23T00:25:56;5.50;99.90
31979;DHT22;18502;43.574;1.276;2024-02-23T00:28:21;5.50;99.90
31979;DHT22;18502;43.574;1.276;2024-02-23T00:30:47;5.70;99.90
31979;DHT22;18502;43.574;1.276;2024-02-23T00:33:13;5.80;99.90
31979;DHT22;18502;43.574;1.276;2024-02-23T00:35:39;5.80;99.90
31979;DHT22;18502;43.574;1.276;2024-02-23T00:38:04;5.70;99.90
31979;DHT22;18502;43.574;1.276;2024-02-23T00:40:30;5.70;99.90
31979;DHT22;18502;43.574;1.276;2024-02-23T00:42:56;5.50;99.90
31979;DHT22;18502;43.574;1.276;2024-02-23T00:45:21;5.60;99.90
31979;DHT22;18502;43.574;1.276;2024-02-23T00:47:47;5.50;99.90
31979;DHT22;18502;43.574;1.276;2024-02-23T00:50:14;5.60;99.90
31979;DHT22;18502;43.574;1.276;2024-02-23T00:52:39;5.50;99.90
31979;DHT22;18502;43.574;1.276;2024-02-23T00:55:06;5.50;99.90
31979;DHT22;18502;43.574;1.276;2024-02-23T00:57:34;5.40;99.90
31979;DHT22;18502;43.574;1.276;2024-02-23T01:00:01;5.40;99.90
31979;DHT22;18502;43.574;1.276;2024-02-23T01:02:26;5.50;99.90
31979;DHT22;18502;43.574;1.276;2024-02-23T01:04:52;5.50;99.90
31979;DHT22;18502;43.574;1.276;2024-02-23T01:07:22;5.60;99.90
31979;DHT22;18502;43.574;1.276;2024-02-23T01:09:48;5.60;99.90
31979;DHT22;18502;43.574;1.276;2024-02-23T01:12:13;5.80;99.90
31979;DHT22;18502;43.574;1.276;2024-02-23T01:14:39;5.80;99.90
31979;DHT22;18502;43.574;1.276;2024-02-23T01:17:05;5.70;99.90
31979;DHT22;18502;43.574;1.276;2024-02-23T01:19:30;5.70;99.90
31979;DHT22;18502;43.574;1.276;2024-02-23T01:21:56;5.60;99.90
31979;DHT22;18502;43.574;1.276;2024-02-23T01:24:28;5.40;99.90
31979;DHT22;18502;43.574;1.276;2024-02-23T01:26:55;5.60;99.90
31979;DHT22;18502;43.574;1.276;2024-02-23T01:29:22;5.70;99.90
31979;DHT22;18502;43.574;1.276;2024-02-23T01:31:50;5.70;99.90
31979;DHT22;18502;43.574;1.276;2024-02-23T01:34:17;5.70;99.90
31979;DHT22;18502;43.574;1.276;2024-02-23T01:36:43;5.80;99.90
31979;DHT22;18502;43.574;1.276;2024-02-23T01:39:09;5.70;99.90
31979;DHT22;18502;43.574;1.276;2024-02-23T01:41:35;5.70;99.90
31979;DHT22;18502;43.574;1.276;2024-02-23T01:44:01;5.60;99.90
31979;DHT22;18502;43.574;1.276;2024-02-23T01:46:26;5.50;99.90
31979;DHT22;18502;43.574;1.276;2024-02-23T01:48:52;5.50;99.90
31979;DHT22;18502;43.574;1.276;2024-02-23T01:51:19;5.40;99.90
31979;DHT22;18502;43.574;1.276;2024-02-23T01:53:45;5.40;99.90
31979;DHT22;18502;43.574;1.276;2024-02-23T01:56:12;5.40;99.90
31979;DHT22;18502;43.574;1.276;2024-02-23T01:58:43;5.40;99.90
31979;DHT22;18502;43.574;1.276;2024-02-23T02:01:10;5.30;99.90
31979;DHT22;18502;43.574;1.276;2024-02-23T02:03:38;5.20;99.90
31979;DHT22;18502;43.574;1.276;2024-02-23T02:06:07;5.20;99.90
31979;DHT22;18502;43.574;1.276;2024-02-23T02:08:37;5.10;99.90
31979;DHT22;18502;43.574;1.276;2024-02-23T02:11:03;5.20;99.90
31979;DHT22;18502;43.574;1.276;2024-02-23T02:13:29;5.30;99.90
31979;DHT22;18502;43.574;1.276;2024-02-23T02:15:55;5.30;99.90
31979;DHT22;18502;43.574;1.276;2024-02-23T02:18:21;5.20;99.90
31979;DHT22;18502;43.574;1.276;2024-02-23T02:20:56;5.20;99.90
31979;DHT22;18502;43.574;1.276;2024-02-23T02:23:23;5.20;99.90
31979;DHT22;18502;43.574;1.276;2024-02-23T02:25:54;5.20;99.90
31979;DHT22;18502;43.574;1.276;2024-02-23T02:28:20;5.30;99.90
31979;DHT22;18502;43.574;1.276;2024-02-23T02:30:45;5.50;99.90
31979;DHT22;18502;43.574;1.276;2024-02-23T02:33:11;5.40;99.90
31979;DHT22;18502;43.574;1.276;2024-02-23T02:35:36;5.40;99.90
31979;DHT22;18502;43.574;1.276;2024-02-23T02:38:02;5.60;99.90
31979;DHT22;18502;43.574;1.276;2024-02-23T02:40:28;5.60;99.90
31979;DHT22;18502;43.574;1.276;2024-02-23T02:42:53;5.60;99.90
31979;DHT22;18502;43.574;1.276;2024-02-23T02:45:19;5.60;99.90
31979;DHT22;18502;43.574;1.276;2024-02-23T02:47:45;5.60;99.90
31979;DHT22;18502;43.574;1.276;2024-02-23T02:50:10;5.50;99.90
31979;DHT22;18502;43.574;1.276;2024-02-23T02:52:36;5.50;99.90
31979;DHT22;18502;43.574;1.276;2024-02-23T02:55:02;5.30;99.90
31979;DHT22;18502;43.574;1.276;2024-02-23T02:57:29;5.30;99.90
31979;DHT22;18502;43.574;1.276;2024-02-23T02:59:55;5.20;99.90
31979;DHT22;18502;43.574;1.276;2024-02-23T03:02:21;5.40;99.90
31979;DHT22;18502;43.574;1.276;2024-02-23T03:04:50;5.40;99.90
31979;DHT22;18502;43.574;1.276;2024-02-23T03:07:16;5.30;99.90
31979;DHT22;18502;43.574;1.276;2024-02-23T03:09:42;5.20;99.90
31979;DHT22;18502;43.574;1.276;2024-02-23T03:12:08;5.20;99.90
31979;DHT22;18502;43.574;1.276;2024-02-23T03:14:34;5.30;99.90
31979;DHT22;18502;43.574;1.276;2024-02-23T03:17:00;5.40;99.90
31979;DHT22;18502;43.574;1.276;2024-02-23T03:19:25;5.40;99.90
31979;DHT22;18502;43.574;1.276;2024-02-23T03:21:51;5.40;99.90
31979;DHT22;18502;43.574;1.276;2024-02-23T03:24:17;5.60;99.90
31979;DHT22;18502;43.574;1.276;2024-02-23T03:26:43;5.60;99.90
31979;DHT22;18502;43.574;1.276;2024-02-23T03:29:09;5.50;99.90
31979;DHT22;18502;43.574;1.276;2024-02-23T03:31:35;5.40;99.90
31979;DHT22;18502;43.574;1.276;2024-02-23T03:34:02;5.50;99.90
31979;DHT22;18502;43.574;1.276;2024-02-23T03:36:28;5.40;99.90
31979;DHT22;18502;43.574;1.276;2024-02-23T03:38:53;5.40;99.90
31979;DHT22;18502;43.574;1.276;2024-02-23T03:41:19;5.50;99.90
31979;DHT22;18502;43.574;1.276;2024-02-23T03:43:45;5.50;99.90
31979;DHT22;18502;43.574;1.276;2024-02-23T03:46:10;5.60;99.90
31979;DHT22;18502;43.574;1.276;2024-02-23T03:48:37;5.40;99.90
31979;DHT22;18502;43.574;1.276;2024-02-23T03:51:04;5.40;99.90
31979;DHT22;18502;43.574;1.276;2024-02-23T03:53:30;5.40;99.90
31979;DHT22;18502;43.574;1.276;2024-02-23T03:55:57;5.60;99.90
31979;DHT22;18502;43.574;1.276;2024-02-23T03:58:23;5.60;99.90
31979;DHT22;18502;43.574;1.276;2024-02-23T04:00:48;5.50;99.90
31979;DHT22;18502;43.574;1.276;2024-02-23T04:03:14;5.50;99.90
31979;DHT22;18502;43.574;1.276;2024-02-23T04:05:39;5.60;99.90
31979;DHT22;18502;43.574;1.276;2024-02-23T04:08:05;5.70;99.90
31979;DHT22;18502;43.574;1.276;2024-02-23T04:10:31;5.70;99.90
31979;DHT22;18502;43.574;1.276;2024-02-23T04:12:58;5.70;99.90
31979;DHT22;18502;43.574;1.276;2024-02-23T04:15:23;5.80;99.90
31979;DHT22;18502;43.574;1.276;2024-02-23T04:17:49;5.80;99.90
31979;DHT22;18502;43.574;1.276;2024-02-23T04:20:15;5.70;99.90
31979;DHT22;18502;43.574;1.276;2024-02-23T04:22:40;5.80;99.90
31979;DHT22;18502;43.574;1.276;2024-02-23T04:25:06;5.70;99.90
31979;DHT22;18502;43.574;1.276;2024-02-23T04:27:32;5.70;99.90
31979;DHT22;18502;43.574;1.276;2024-02-23T04:29:58;5.60;99.90
31979;DHT22;18502;43.574;1.276;2024-02-23T04:32:23;5.50;99.90
31979;DHT22;18502;43.574;1.276;2024-02-23T04:34:49;5.50;99.90
31979;DHT22;18502;43.574;1.276;2024-02-23T04:37:15;5.50;99.90
31979;DHT22;18502;43.574;1.276;2024-02-23T04:39:43;5.50;99.90
31979;DHT22;18502;43.574;1.276;2024-02-23T04:42:08;5.60;99.90
31979;DHT22;18502;43.574;1.276;2024-02-23T04:44:35;5.60;99.90
31979;DHT22;18502;43.574;1.276;2024-02-23T04:47:01;5.50;99.90
31979;DHT22;18502;43.574;1.276;2024-02-23T04:49:26;5.40;99.90
31979;DHT22;18502;43.574;1.276;2024-02-23T04:51:52;5.60;99.90
31979;DHT22;18502;43.574;1.276;2024-02-23T04:54:18;5.40;99.90
31979;DHT22;18502;43.574;1.276;2024-02-23T04:56:44;5.40;99.90
31979;DHT22;18502;43.574;1.276;2024-02-23T04:59:10;5.40;99.90
31979;DHT22;18502;43.574;1.276;2024-02-23T05:01:36;5.40;99.90
31979;DHT22;18502;43.574;1.276;2024-02-23T05:04:03;5.40;99.90
31979;DHT22;18502;43.574;1.276;2024-02-23T05:06:29;5.30;99.90
31979;DHT22;18502;43.574;1.276;2024-02-23T05:08:55;5.40;99.90
31979;DHT22;18502;43.574;1.276;2024-02-23T05:11:21;5.20;99.90
31979;DHT22;18502;43.574;1.276;2024-02-23T05:13:47;5.30;99.90
31979;DHT22;18502;43.574;1.276;2024-02-23T05:16:16;5.20;99.90
31979;DHT22;18502;43.574;1.276;2024-02-23T05:18:43;5.30;99.90
31979;DHT22;18502;43.574;1.276;2024-02-23T05:21:09;5.10;99.90
31979;DHT22;18502;43.574;1.276;2024-02-23T05:23:35;5.20;99.90
31979;DHT22;18502;43.574;1.276;2024-02-23T05:26:01;5.20;99.90
31979;DHT22;18502;43.574;1.276;2024-02-23T05:28:27;5.10;99.90
31979;DHT22;18502;43.574;1.276;2024-02-23T05:30:54;5.10;99.90
31979;DHT22;18502;43.574;1.276;2024-02-23T05:33:20;5.10;99.90
31979;DHT22;18502;43.574;1.276;2024-02-23T05:35:46;5.10;99.90
31979;DHT22;18502;43.574;1.276;2024-02-23T05:38:14;5.10;99.90
31979;DHT22;18502;43.574;1.276;2024-02-23T05:40:40;5.10;99.90
31979;DHT22;18502;43.574;1.276;2024-02-23T05:43:06;5.10;99.90
31979;DHT22;18502;43.574;1.276;2024-02-23T05:45:32;5.20;99.90
31979;DHT22;18502;43.574;1.276;2024-02-23T05:47:58;5.20;99.90
31979;DHT22;18502;43.574;1.276;2024-02-23T05:50:24;5.10;99.90
31979;DHT22;18502;43.574;1.276;2024-02-23T05:52:49;5.10;99.90
31979;DHT22;18502;43.574;1.276;2024-02-23T05:55:15;5.10;99.90
31979;DHT22;18502;43.574;1.276;2024-02-23T05:57:41;4.90;99.90
31979;DHT22;18502;43.574;1.276;2024-02-23T06:00:08;4.80;99.90
31979;DHT22;18502;43.574;1.276;2024-02-23T06:02:33;4.60;99.90
31979;DHT22;18502;43.574;1.276;2024-02-23T06:04:59;4.70;99.90
31979;DHT22;18502;43.574;1.276;2024-02-23T06:07:25;4.80;99.90
31979;DHT22;18502;43.574;1.276;2024-02-23T06:09:57;4.80;99.90
31979;DHT22;18502;43.574;1.276;2024-02-23T06:12:24;4.80;99.90
31979;DHT22;18502;43.574;1.276;2024-02-23T06:14:51;4.70;99.90
31979;DHT22;18502;43.574;1.276;2024-02-23T06:17:16;4.90;99.90
31979;DHT22;18502;43.574;1.276;2024-02-23T06:19:42;4.90;99.90
31979;DHT22;18502;43.574;1.276;2024-02-23T06:22:08;4.90;99.90
31979;DHT22;18502;43.574;1.276;2024-02-23T06:24:35;5.00;99.90
31979;DHT22;18502;43.574;1.276;2024-02-23T06:27:01;5.10;99.90
31979;DHT22;18502;43.574;1.276;2024-02-23T06:29:29;5.10;99.90
31979;DHT22;18502;43.574;1.276;2024-02-23T06:31:55;5.20;99.90
31979;DHT22;18502;43.574;1.276;2024-02-23T06:34:21;5.10;99.90
31979;DHT22;18502;43.574;1.276;2024-02-23T06:36:46;5.10;99.90
31979;DHT22;18502;43.574;1.276;2024-02-23T06:39:12;5.10;99.90
31979;DHT22;18502;43.574;1.276;2024-02-23T06:41:38;5.10;99.90
31979;DHT22;18502;43.574;1.276;2024-02-23T06:44:04;5.30;99.90
31979;DHT22;18502;43.574;1.276;2024-02-23T06:46:30;5.40;99.90
31979;DHT22;18502;43.574;1.276;2024-02-23T06:48:56;5.50;99.90
31979;DHT22;18502;43.574;1.276;2024-02-23T06:51:21;5.60;99.90
31979;DHT22;18502;43.574;1.276;2024-02-23T06:53:47;5.60;99.90
31979;DHT22;18502;43.574;1.276;2024-02-23T06:56:13;5.60;99.90
31979;DHT22;18502;43.574;1.276;2024-02-23T06:58:39;5.40;99.90
31979;DHT22;18502;43.574;1.276;2024-02-23T07:01:04;5.30;99.90
31979;DHT22;18502;43.574;1.276;2024-02-23T07:03:34;5.00;99.90
31979;DHT22;18502;43.574;1.276;2024-02-23T07:06:00;5.00;99.90
31979;DHT22;18502;43.574;1.276;2024-02-23T07:08:26;4.90;99.90
31979;DHT22;18502;43.574;1.276;2024-02-23T07:10:52;4.90;99.90
31979;DHT22;18502;43.574;1.276;2024-02-23T07:13:17;5.00;99.90
31979;DHT22;18502;43.574;1.276;2024-02-23T07:15:44;5.00;99.90
31979;DHT22;18502;43.574;1.276;2024-02-23T07:18:10;5.10;99.90
31979;DHT22;18502;43.574;1.276;2024-02-23T07:20:36;5.20;99.90
31979;DHT22;18502;43.574;1.276;2024-02-23T07:23:02;5.10;99.90
31979;DHT22;18502;43.574;1.276;2024-02-23T07:25:27;5.10;99.90
31979;DHT22;18502;43.574;1.276;2024-02-23T07:27:53;5.20;99.90
31979;DHT22;18502;43.574;1.276;2024-02-23T07:30:19;5.20;99.90
31979;DHT22;18502;43.574;1.276;2024-02-23T07:32:45;5.20;99.90
31979;DHT22;18502;43.574;1.276;2024-02-23T07:35:12;5.30;99.90
31979;DHT22;18502;43.574;1.276;2024-02-23T07:37:37;5.30;99.90
31979;DHT22;18502;43.574;1.276;2024-02-23T07:40:03;5.30;99.90
31979;DHT22;18502;43.574;1.276;2024-02-23T07:42:31;5.30;99.90
31979;DHT22;18502;43.574;1.276;2024-02-23T07:44:56;5.30;99.90
31979;DHT22;18502;43.574;1.276;2024-02-23T07:47:22;5.30;99.90
31979;DHT22;18502;43.574;1.276;2024-02-23T07:49:48;5.30;99.90
31979;DHT22;18502;43.574;1.276;2024-02-23T07:52:13;5.30;99.90
31979;DHT22;18502;43.574;1.276;2024-02-23T07:54:39;5.40;99.90
31979;DHT22;18502;43.574;1.276;2024-02-23T07:57:05;5.50;99.90
31979;DHT22;18502;43.574;1.276;2024-02-23T07:59:30;5.70;99.90
31979;DHT22;18502;43.574;1.276;2024-02-23T08:01:56;5.90;99.90
31979;DHT22;18502;43.574;1.276;2024-02-23T08:04:22;6.00;99.90
31979;DHT22;18502;43.574;1.276;2024-02-23T08:06:49;6.20;99.90
31979;DHT22;18502;43.574;1.276;2024-02-23T08:09:14;6.40;99.90
31979;DHT22;18502;43.574;1.276;2024-02-23T08:11:40;6.60;99.90
31979;DHT22;18502;43.574;1.276;2024-02-23T08:14:06;6.70;99.90
31979;DHT22;18502;43.574;1.276;2024-02-23T08:16:31;7.00;99.90
31979;DHT22;18502;43.574;1.276;2024-02-23T08:18:57;7.50;99.90
31979;DHT22;18502;43.574;1.276;2024-02-23T08:21:23;7.20;99.90
31979;DHT22;18502;43.574;1.276;2024-02-23T08:23:49;7.10;99.90
31979;DHT22;18502;43.574;1.276;2024-02-23T08:26:14;7.10;99.90
31979;DHT22;18502;43.574;1.276;2024-02-23T08:28:40;7.20;99.90
31979;DHT22;18502;43.574;1.276;2024-02-23T08:31:06;7.10;99.90
31979;DHT22;18502;43.574;1.276;2024-02-23T08:33:31;7.10;99.90
31979;DHT22;18502;43.574;1.276;2024-02-23T08:35:57;6.80;99.90
31979;DHT22;18502;43.574;1.276;2024-02-23T08:38:23;6.80;99.90
31979;DHT22;18502;43.574;1.276;2024-02-23T08:40:48;7.10;99.90
31979;DHT22;18502;43.574;1.276;2024-02-23T08:43:14;7.20;99.90
31979;DHT22;18502;43.574;1.276;2024-02-23T08:45:40;7.10;99.90
31979;DHT22;18502;43.574;1.276;2024-02-23T08:48:06;7.10;99.90
31979;DHT22;18502;43.574;1.276;2024-02-23T08:50:32;7.30;99.90
31979;DHT22;18502;43.574;1.276;2024-02-23T08:52:58;7.50;99.90
31979;DHT22;18502;43.574;1.276;2024-02-23T08:55:23;7.50;99.90
31979;DHT22;18502;43.574;1.276;2024-02-23T08:57:50;7.80;99.90
31979;DHT22;18502;43.574;1.276;2024-02-23T09:00:15;7.60;99.90
31979;DHT22;18502;43.574;1.276;2024-02-23T09:02:41;7.70;99.90
31979;DHT22;18502;43.574;1.276;2024-02-23T09:05:10;7.80;99.90
31979;DHT22;18502;43.574;1.276;2024-02-23T09:07:35;7.60;99.90
31979;DHT22;18502;43.574;1.276;2024-02-23T09:10:02;7.80;99.90
31979;DHT22;18502;43.574;1.276;2024-02-23T09:12:30;8.20;99.90
31979;DHT22;18502;43.574;1.276;2024-02-23T09:14:55;8.70;99.90
31979;DHT22;18502;43.574;1.276;2024-02-23T09:17:21;9.00;99.90
31979;DHT22;18502;43.574;1.276;2024-02-23T09:19:47;8.90;99.90
31979;DHT22;18502;43.574;1.276;2024-02-23T09:22:13;9.00;99.90
31979;DHT22;18502;43.574;1.276;2024-02-23T09:24:41;8.90;99.90
31979;DHT22;18502;43.574;1.276;2024-02-23T09:27:07;9.00;99.90
31979;DHT22;18502;43.574;1.276;2024-02-23T09:29:33;9.40;99.90
31979;DHT22;18502;43.574;1.276;2024-02-23T09:31:59;9.60;99.90
31979;DHT22;18502;43.574;1.276;2024-02-23T09:34:25;9.10;99.90
31979;DHT22;18502;43.574;1.276;2024-02-23T09:36:51;8.90;99.90
31979;DHT22;18502;43.574;1.276;2024-02-23T09:39:17;8.50;99.90
31979;DHT22;18502;43.574;1.276;2024-02-23T09:41:43;8.80;99.90
31979;DHT22;18502;43.574;1.276;2024-02-23T09:44:09;8.60;99.90
31979;DHT22;18502;43.574;1.276;2024-02-23T09:46:38;8.60;99.90
31979;DHT22;18502;43.574;1.276;2024-02-23T09:49:05;8.30;99.90
31979;DHT22;18502;43.574;1.276;2024-02-23T09:51:34;8.70;99.90
31979;DHT22;18502;43.574;1.276;2024-02-23T09:54:01;8.70;99.90
31979;DHT22;18502;43.574;1.276;2024-02-23T09:56:28;8.30;99.90
31979;DHT22;18502;43.574;1.276;2024-02-23T09:58:58;7.90;99.90
31979;DHT22;18502;43.574;1.276;2024-02-23T10:01:28;7.60;99.90
31979;DHT22;18502;43.574;1.276;2024-02-23T10:03:57;7.10;99.90
31979;DHT22;18502;43.574;1.276;2024-02-23T10:06:27;7.00;99.90
31979;DHT22;18502;43.574;1.276;2024-02-23T10:08:56;6.80;99.90
31979;DHT22;18502;43.574;1.276;2024-02-23T10:11:22;6.90;99.90
31979;DHT22;18502;43.574;1.276;2024-02-23T10:13:48;7.10;99.90
31979;DHT22;18502;43.574;1.276;2024-02-23T10:16:18;7.10;99.90
31979;DHT22;18502;43.574;1.276;2024-02-23T10:18:46;7.50;99.90
31979;DHT22;18502;43.574;1.276;2024-02-23T10:21:16;7.70;99.90
31979;DHT22;18502;43.574;1.276;2024-02-23T10:23:44;7.60;99.90
31979;DHT22;18502;43.574;1.276;2024-02-23T10:26:09;7.60;99.90
31979;DHT22;18502;43.574;1.276;2024-02-23T10:28:37;7.60;99.90
31979;DHT22;18502;43.574;1.276;2024-02-23T10:31:06;7.40;99.90
31979;DHT22;18502;43.574;1.276;2024-02-23T10:33:32;6.80;99.90
31979;DHT22;18502;43.574;1.276;2024-02-23T10:35:58;6.60;99.90
31979;DHT22;18502;43.574;1.276;2024-02-23T10:38:32;7.20;99.90
31979;DHT22;18502;43.574;1.276;2024-02-23T10:40:58;7.00;99.90
31979;DHT22;18502;43.574;1.276;2024-02-23T10:43:39;7.50;99.90
31979;DHT22;18502;43.574;1.276;2024-02-23T10:46:06;7.20;99.90
31979;DHT22;18502;43.574;1.276;2024-02-23T10:48:36;7.90;99.90
31979;DHT22;18502;43.574;1.276;2024-02-23T10:51:02;7.30;99.90
31979;DHT22;18502;43.574;1.276;2024-02-23T10:53:31;7.10;99.90
31979;DHT22;18502;43.574;1.276;2024-02-23T10:55:57;7.30;99.90
31979;DHT22;18502;43.574;1.276;2024-02-23T10:58:26;7.20;99.90
31979;DHT22;18502;43.574;1.276;2024-02-23T11:00:57;7.30;99.90
31979;DHT22;18502;43.574;1.276;2024-02-23T11:03:28;7.20;99.90
31979;DHT22;18502;43.574;1.276;2024-02-23T11:05:54;6.70;99.90
31979;DHT22;18502;43.574;1.276;2024-02-23T11:08:20;6.50;99.90
31979;DHT22;18502;43.574;1.276;2024-02-23T11:10:51;6.30;99.90
31979;DHT22;18502;43.574;1.276;2024-02-23T11:13:17;6.30;99.90
31979;DHT22;18502;43.574;1.276;2024-02-23T11:15:43;7.00;99.90
31979;DHT22;18502;43.574;1.276;2024-02-23T11:18:28;6.80;99.90
31979;DHT22;18502;43.574;1.276;2024-02-23T11:20:54;6.90;99.90
31979;DHT22;18502;43.574;1.276;2024-02-23T11:23:22;6.90;99.90
31979;DHT22;18502;43.574;1.276;2024-02-23T11:28:29;7.50;99.90
31979;DHT22;18502;43.574;1.276;2024-02-23T11:30:54;7.10;99.90
31979;DHT22;18502;43.574;1.276;2024-02-23T11:33:29;6.70;99.90
31979;DHT22;18502;43.574;1.276;2024-02-23T11:36:09;6.80;99.90
31979;DHT22;18502;43.574;1.276;2024-02-23T11:38:35;6.80;99.90
31979;DHT22;18502;43.574;1.276;2024-02-23T11:41:01;6.40;99.90
31979;DHT22;18502;43.574;1.276;2024-02-23T11:43:27;6.40;99.90
31979;DHT22;18502;43.574;1.276;2024-02-23T11:45:53;6.40;99.90
31979;DHT22;18502;43.574;1.276;2024-02-23T11:48:19;6.80;99.90
31979;DHT22;18502;43.574;1.276;2024-02-23T11:50:45;6.80;99.90
31979;DHT22;18502;43.574;1.276;2024-02-23T11:53:11;7.20;99.90
31979;DHT22;18502;43.574;1.276;2024-02-23T11:55:37;7.30;99.90
31979;DHT22;18502;43.574;1.276;2024-02-23T11:58:03;7.60;99.90
31979;DHT22;18502;43.574;1.276;2024-02-23T12:00:28;7.80;99.90
31979;DHT22;18502;43.574;1.276;2024-02-23T12:02:55;8.00;99.90
31979;DHT22;18502;43.574;1.276;2024-02-23T12:05:22;8.80;99.90
31979;DHT22;18502;43.574;1.276;2024-02-23T12:07:47;9.40;99.90
31979;DHT22;18502;43.574;1.276;2024-02-23T12:10:13;9.10;99.90
31979;DHT22;18502;43.574;1.276;2024-02-23T12:12:39;9.60;99.90
31979;DHT22;18502;43.574;1.276;2024-02-23T12:15:06;10.30;99.90
31979;DHT22;18502;43.574;1.276;2024-02-23T12:17:31;11.80;99.90
31979;DHT22;18502;43.574;1.276;2024-02-23T12:20:01;10.70;99.90
31979;DHT22;18502;43.574;1.276;2024-02-23T12:22:27;10.50;99.90
31979;DHT22;18502;43.574;1.276;2024-02-23T12:24:52;10.80;99.90
31979;DHT22;18502;43.574;1.276;2024-02-23T12:27:19;11.20;99.90
31979;DHT22;18502;43.574;1.276;2024-02-23T12:29:56;10.70;99.90
31979;DHT22;18502;43.574;1.276;2024-02-23T12:32:22;10.90;99.90
31979;DHT22;18502;43.574;1.276;2024-02-23T12:34:48;10.40;99.90
31979;DHT22;18502;43.574;1.276;2024-02-23T12:37:18;10.10;99.90
31979;DHT22;18502;43.574;1.276;2024-02-23T12:39:46;11.70;99.90
31979;DHT22;18502;43.574;1.276;2024-02-23T12:42:12;13.00;99.90
31979;DHT22;18502;43.574;1.276;2024-02-23T12:44:38;14.50;99.90
31979;DHT22;18502;43.574;1.276;2024-02-23T12:47:03;14.20;99.90
31979;DHT22;18502;43.574;1.276;2024-02-23T12:49:29;14.50;99.90
31979;DHT22;18502;43.574;1.276;2024-02-23T12:51:55;12.50;99.90
31979;DHT22;18502;43.574;1.276;2024-02-23T12:54:21;12.80;99.90
31979;DHT22;18502;43.574;1.276;2024-02-23T12:56:47;11.30;99.90
31979;DHT22;18502;43.574;1.276;2024-02-23T12:59:12;12.70;99.90
31979;DHT22;18502;43.574;1.276;2024-02-23T13:01:38;13.90;99.90
31979;DHT22;18502;43.574;1.276;2024-02-23T13:04:04;14.50;99.90
31979;DHT22;18502;43.574;1.276;2024-02-23T13:06:39;16.40;99.90
31979;DHT22;18502;43.574;1.276;2024-02-23T13:09:06;18.10;99.90
31979;DHT22;18502;43.574;1.276;2024-02-23T13:11:35;18.40;99.90
31979;DHT22;18502;43.574;1.276;2024-02-23T13:14:03;18.40;99.90
31979;DHT22;18502;43.574;1.276;2024-02-23T13:16:29;19.10;99.90
31979;DHT22;18502;43.574;1.276;2024-02-23T13:18:55;14.60;99.90
31979;DHT22;18502;43.574;1.276;2024-02-23T13:21:20;12.80;99.90
31979;DHT22;18502;43.574;1.276;2024-02-23T13:23:46;11.20;99.90
31979;DHT22;18502;43.574;1.276;2024-02-23T13:26:12;11.50;99.90
31979;DHT22;18502;43.574;1.276;2024-02-23T13:28:41;12.90;99.90
31979;DHT22;18502;43.574;1.276;2024-02-23T13:31:07;12.60;99.90
31979;DHT22;18502;43.574;1.276;2024-02-23T13:33:32;13.20;99.90
31979;DHT22;18502;43.574;1.276;2024-02-23T13:35:58;14.00;99.90
31979;DHT22;18502;43.574;1.276;2024-02-23T13:38:24;14.70;99.90
31979;DHT22;18502;43.574;1.276;2024-02-23T13:40:50;15.00;99.90
31979;DHT22;18502;43.574;1.276;2024-02-23T13:43:16;16.60;99.90
31979;DHT22;18502;43.574;1.276;2024-02-23T13:45:52;17.80;99.90
31979;DHT22;18502;43.574;1.276;2024-02-23T13:48:19;15.70;99.90
31979;DHT22;18502;43.574;1.276;2024-02-23T13:50:48;15.90;99.90
31979;DHT22;18502;43.574;1.276;2024-02-23T13:53:14;16.40;99.90
31979;DHT22;18502;43.574;1.276;2024-02-23T13:55:40;13.80;99.90
31979;DHT22;18502;43.574;1.276;2024-02-23T13:58:09;13.30;99.90
31979;DHT22;18502;43.574;1.276;2024-02-23T14:00:35;13.30;99.90
31979;DHT22;18502;43.574;1.276;2024-02-23T14:03:01;12.50;99.90
31979;DHT22;18502;43.574;1.276;2024-02-23T14:05:27;11.80;99.90
31979;DHT22;18502;43.574;1.276;2024-02-23T14:07:53;10.30;99.90
31979;DHT22;18502;43.574;1.276;2024-02-23T14:10:19;7.90;99.90
31979;DHT22;18502;43.574;1.276;2024-02-23T14:12:45;7.90;99.90
31979;DHT22;18502;43.574;1.276;2024-02-23T14:15:11;8.40;99.90
31979;DHT22;18502;43.574;1.276;2024-02-23T14:17:38;9.50;99.90
31979;DHT22;18502;43.574;1.276;2024-02-23T14:20:04;9.50;99.90
31979;DHT22;18502;43.574;1.276;2024-02-23T14:22:30;9.40;99.90
31979;DHT22;18502;43.574;1.276;2024-02-23T14:24:57;10.40;99.90
31979;DHT22;18502;43.574;1.276;2024-02-23T14:27:22;9.60;99.90
31979;DHT22;18502;43.574;1.276;2024-02-23T14:29:48;9.20;99.90
31979;DHT22;18502;43.574;1.276;2024-02-23T14:32:16;8.10;99.90
31979;DHT22;18502;43.574;1.276;2024-02-23T14:34:42;8.00;99.90
31979;DHT22;18502;43.574;1.276;2024-02-23T14:37:07;8.50;99.90
31979;DHT22;18502;43.574;1.276;2024-02-23T14:39:33;7.90;99.90
31979;DHT22;18502;43.574;1.276;2024-02-23T14:41:59;7.50;99.90
31979;DHT22;18502;43.574;1.276;2024-02-23T14:44:25;10.00;99.90
31979;DHT22;18502;43.574;1.276;2024-02-23T14:46:51;11.60;99.90
31979;DHT22;18502;43.574;1.276;2024-02-23T14:49:17;12.50;99.90
31979;DHT22;18502;43.574;1.276;2024-02-23T14:51:43;11.80;99.90
31979;DHT22;18502;43.574;1.276;2024-02-23T14:54:11;13.30;99.90
31979;DHT22;18502;43.574;1.276;2024-02-23T14:56:37;13.90;99.90
31979;DHT22;18502;43.574;1.276;2024-02-23T14:59:03;14.60;99.90
31979;DHT22;18502;43.574;1.276;2024-02-23T15:01:29;14.40;99.90
31979;DHT22;18502;43.574;1.276;2024-02-23T15:03:54;13.00;99.90
31979;DHT22;18502;43.574;1.276;2024-02-23T15:06:20;13.20;99.90
31979;DHT22;18502;43.574;1.276;2024-02-23T15:08:48;13.10;99.90
31979;DHT22;18502;43.574;1.276;2024-02-23T15:11:13;13.80;99.90
31979;DHT22;18502;43.574;1.276;2024-02-23T15:13:39;14.00;99.90
31979;DHT22;18502;43.574;1.276;2024-02-23T15:16:06;15.00;99.90
31979;DHT22;18502;43.574;1.276;2024-02-23T15:18:31;14.10;99.90
31979;DHT22;18502;43.574;1.276;2024-02-23T15:20:57;14.30;99.90
31979;DHT22;18502;43.574;1.276;2024-02-23T15:23:23;14.00;99.90
31979;DHT22;18502;43.574;1.276;2024-02-23T15:25:50;13.80;99.90
31979;DHT22;18502;43.574;1.276;2024-02-23T15:28:15;15.70;99.90
31979;DHT22;18502;43.574;1.276;2024-02-23T15:30:51;15.10;99.90
31979;DHT22;18502;43.574;1.276;2024-02-23T15:33:17;16.90;99.90
31979;DHT22;18502;43.574;1.276;2024-02-23T15:35:43;15.70;99.90
31979;DHT22;18502;43.574;1.276;2024-02-23T15:38:09;13.60;99.90
31979;DHT22;18502;43.574;1.276;2024-02-23T15:40:34;14.00;99.90